Time;durP1;ratioP1;P1;durP2;ratioP2;P2;SDS_P1;SDS_P2;PMS_P1;PMS_P2;Temp;Humidity;BMP_temperature;BMP_pressure;BME280_temperature;BME280_humidity;BME280_pressure;Samples;Min_cycle;Max_cycle;Signal;HPM_P1;HPM_P2
2022/05/17 00:01:14;;;;;;;0.00;0.00;;;;;;;;;;5037025;28;92264;-72
2022/05/17 00:03:40;;;;;;;0.00;0.00;;;;;;;;;;5036860;28;93385;-72
2022/05/17 00:06:07;;;;;;;0.00;0.00;;;;;;;;;;5036464;28;93541;-72
2022/05/17 00:08:34;;;;;;;0.00;0.00;;;;;;;;;;5036554;28;92395;-72
2022/05/17 00:11:00;;;;;;;0.00;0.00;;;;;;;;;;5036974;28;93479;-72
2022/05/17 00:13:27;;;;;;;0.00;0.00;;;;;;;;;;5036873;28;93241;-72
2022/05/17 00:15:54;;;;;;;0.00;0.00;;;;;;;;;;5036781;28;92234;-72
2022/05/17 00:18:22;;;;;;;0.00;0.00;;;;;;;;;;5039765;28;93570;-72
2022/05/17 00:20:48;;;;;;;0.00;0.00;;;;;;;;;;5035357;28;94523;-72
2022/05/17 00:23:18;;;;;;;0.00;0.00;;;;;;;;;;5036294;28;95937;-72
2022/05/17 00:25:47;;;;;;;0.00;0.00;;;;;;;;;;5018772;28;93688;-72
2022/05/17 00:28:14;;;;;;;0.00;0.00;;;;;;;;;;5036557;28;92439;-72
2022/05/17 00:30:41;;;;;;;0.08;0.08;;;;;;;;;;5036668;28;92554;-72
2022/05/17 00:33:07;;;;;;;0.00;0.00;;;;;;;;;;5036440;28;93791;-72
2022/05/17 00:35:34;;;;;;;0.10;0.10;;;;;;;;;;5036831;27;92306;-72
2022/05/17 00:38:00;;;;;;;0.00;0.00;;;;;;;;;;5043465;28;93809;-72
2022/05/17 00:40:27;;;;;;;0.00;0.00;;;;;;;;;;5039871;28;92255;-71
2022/05/17 00:42:53;;;;;;;0.00;0.00;;;;;;;;;;5039887;28;93504;-71
2022/05/17 00:45:20;;;;;;;0.00;0.00;;;;;;;;;;5038129;28;95951;-71
2022/05/17 00:47:53;;;;;;;0.00;0.00;;;;;;;;;;5039892;28;92350;-71
2022/05/17 00:50:30;;;;;;;0.00;0.00;;;;;;;;;;5039443;28;93603;-71
2022/05/17 00:53:06;;;;;;;0.00;0.00;;;;;;;;;;5039660;28;93999;-71
2022/05/17 00:55:38;;;;;;;0.00;0.00;;;;;;;;;;5039880;28;92165;-72
2022/05/17 00:58:10;;;;;;;0.00;0.00;;;;;;;;;;5039409;28;93450;-71
2022/05/17 01:00:39;;;;;;;0.00;0.00;;;;;;;;;;5042441;28;93746;-72
2022/05/17 01:03:08;;;;;;;0.00;0.00;;;;;;;;;;5039973;28;93600;-71
2022/05/17 01:05:37;;;;;;;0.00;0.00;;;;;;;;;;5039446;28;93687;-72
2022/05/17 01:08:05;;;;;;;0.00;0.00;;;;;;;;;;5039717;28;92255;-71
2022/05/17 01:10:32;;;;;;;0.03;0.03;;;;;;;;;;5038134;28;94693;-71
2022/05/17 01:15:44;;;;;;;0.00;0.00;;;;;;;;;;5039365;28;92416;-71
2022/05/17 01:18:10;;;;;;;0.00;0.00;;;;;;;;;;5039333;28;93503;-71
2022/05/17 01:20:37;;;;;;;0.00;0.00;;;;;;;;;;5039407;28;93522;-71
2022/05/17 01:23:05;;;;;;;0.00;0.00;;;;;;;;;;5042526;28;92283;-71
2022/05/17 01:25:33;;;;;;;0.00;0.00;;;;;;;;;;5038955;28;93653;-72
2022/05/17 01:28:00;;;;;;;0.00;0.00;;;;;;;;;;5039588;28;91599;-71
2022/05/17 01:30:27;;;;;;;0.00;0.00;;;;;;;;;;5039345;28;92153;-71
2022/05/17 01:32:55;;;;;;;0.00;0.00;;;;;;;;;;5039087;28;93255;-71
2022/05/17 01:35:22;;;;;;;0.00;0.00;;;;;;;;;;5037266;28;94757;-71
2022/05/17 01:37:50;;;;;;;0.00;0.00;;;;;;;;;;5039198;28;95770;-71
2022/05/17 01:40:17;;;;;;;0.00;0.00;;;;;;;;;;5038049;28;97092;-72
2022/05/17 01:42:43;;;;;;;0.00;0.00;;;;;;;;;;5036079;28;92232;-71
2022/05/17 01:45:11;;;;;;;0.00;0.00;;;;;;;;;;5041775;28;94310;-71
2022/05/17 01:47:38;;;;;;;0.00;0.00;;;;;;;;;;5017095;28;92479;-71
2022/05/17 01:50:05;;;;;;;0.00;0.00;;;;;;;;;;5038952;28;93290;-71
2022/05/17 01:52:31;;;;;;;0.00;0.00;;;;;;;;;;5039241;28;93272;-71
2022/05/17 01:54:58;;;;;;;0.00;0.00;;;;;;;;;;5038924;28;93255;-71
2022/05/17 01:57:24;;;;;;;0.00;0.00;;;;;;;;;;5038233;28;94835;-71
2022/05/17 01:59:50;;;;;;;0.00;0.00;;;;;;;;;;5036923;28;95880;-71
2022/05/17 02:02:17;;;;;;;0.00;0.00;;;;;;;;;;5038878;28;92890;-72
2022/05/17 02:04:43;;;;;;;0.00;0.00;;;;;;;;;;5038562;28;93492;-71
2022/05/17 02:07:09;;;;;;;9.75;3.55;;;;;;;;;;5041697;28;93795;-72
2022/05/17 02:09:36;;;;;;;0.00;0.00;;;;;;;;;;5038429;28;93637;-72
2022/05/17 02:12:03;;;;;;;0.00;0.00;;;;;;;;;;5038409;28;93601;-71
2022/05/17 02:14:29;;;;;;;0.00;0.00;;;;;;;;;;5038635;28;92271;-71
2022/05/17 02:16:58;;;;;;;0.00;0.00;;;;;;;;;;5039029;28;92668;-71
2022/05/17 02:19:25;;;;;;;0.00;0.00;;;;;;;;;;5038408;28;93757;-71
2022/05/17 02:21:51;;;;;;;0.00;0.00;;;;;;;;;;5038219;28;92329;-72
2022/05/17 02:24:17;;;;;;;0.00;0.00;;;;;;;;;;5036670;28;94796;-72
2022/05/17 02:26:44;;;;;;;0.00;0.00;;;;;;;;;;5037917;28;95103;-71
2022/05/17 02:29:10;;;;;;;0.00;0.00;;;;;;;;;;5041376;28;92268;-72
2022/05/17 02:31:37;;;;;;;0.00;0.00;;;;;;;;;;5038005;28;93646;-72
2022/05/17 02:34:04;;;;;;;0.05;0.05;;;;;;;;;;5038094;28;92828;-71
2022/05/17 02:36:30;;;;;;;0.00;0.00;;;;;;;;;;5038158;28;93302;-72
2022/05/17 02:38:57;;;;;;;0.00;0.00;;;;;;;;;;5037717;28;93631;-71
2022/05/17 02:41:23;;;;;;;0.00;0.00;;;;;;;;;;5038484;28;91508;-71
2022/05/17 02:43:50;;;;;;;1.40;0.47;;;;;;;;;;5038178;28;92290;-71
2022/05/17 02:46:16;;;;;;;0.00;0.00;;;;;;;;;;5037661;28;94972;-71
2022/05/17 02:48:43;;;;;;;0.00;0.00;;;;;;;;;;5039590;28;94731;-71
2022/05/17 02:51:09;;;;;;;0.00;0.00;;;;;;;;;;5037222;28;93641;-72
2022/05/17 02:53:35;;;;;;;0.00;0.00;;;;;;;;;;5037766;28;92286;-71
2022/05/17 02:56:03;;;;;;;0.00;0.00;;;;;;;;;;5037962;28;93091;-71
2022/05/17 02:58:29;;;;;;;0.00;0.00;;;;;;;;;;5036880;27;94137;-71
2022/05/17 03:00:56;;;;;;;0.00;0.00;;;;;;;;;;5037845;28;92297;-71
2022/05/17 03:03:22;;;;;;;0.00;0.00;;;;;;;;;;5037973;28;93281;-71
2022/05/17 03:05:54;;;;;;;0.00;0.00;;;;;;;;;;5037655;28;92283;-71
2022/05/17 03:08:20;;;;;;;0.00;0.00;;;;;;;;;;5037896;28;92299;-72
2022/05/17 03:10:47;;;;;;;0.00;0.00;;;;;;;;;;5040653;28;92881;-71
2022/05/17 03:13:14;;;;;;;0.00;0.00;;;;;;;;;;5036072;28;94746;-71
2022/05/17 03:15:41;;;;;;;0.00;0.00;;;;;;;;;;5037468;28;96629;-71
2022/05/17 03:18:08;;;;;;;0.00;0.00;;;;;;;;;;5037360;28;93513;-71
2022/05/17 03:20:35;;;;;;;0.00;0.00;;;;;;;;;;5037000;28;92260;-72
2022/05/17 03:23:01;;;;;;;0.00;0.00;;;;;;;;;;5037534;28;93318;-71
2022/05/17 03:25:28;;;;;;;0.00;0.00;;;;;;;;;;5037452;28;92572;-71
2022/05/17 03:27:54;;;;;;;0.00;0.00;;;;;;;;;;5019759;28;92343;-71
2022/05/17 03:30:21;;;;;;;0.00;0.00;;;;;;;;;;5036630;28;92438;-72
2022/05/17 03:32:47;;;;;;;0.00;0.00;;;;;;;;;;5034656;28;93128;-71
2022/05/17 03:35:14;;;;;;;0.00;0.00;;;;;;;;;;5033602;28;92907;-72
2022/05/17 03:37:40;;;;;;;0.00;0.00;;;;;;;;;;5034238;28;96264;-71
2022/05/17 03:40:11;;;;;;;0.00;0.00;;;;;;;;;;5035878;28;93001;-71
2022/05/17 03:42:38;;;;;;;0.00;0.00;;;;;;;;;;5037018;28;93698;-71
2022/05/17 03:45:05;;;;;;;0.00;0.00;;;;;;;;;;5036928;28;93660;-72
2022/05/17 03:47:31;;;;;;;0.00;0.00;;;;;;;;;;5037298;28;92280;-72
2022/05/17 03:49:57;;;;;;;0.00;0.00;;;;;;;;;;5036823;28;94669;-71
2022/05/17 03:52:25;;;;;;;0.00;0.00;;;;;;;;;;5036163;28;94553;-71
2022/05/17 03:54:55;;;;;;;1.65;1.20;;;;;;;;;;5040460;28;92706;-71
2022/05/17 03:57:22;;;;;;;0.00;0.00;;;;;;;;;;5036804;28;93553;-71
2022/05/17 03:59:50;;;;;;;0.00;0.00;;;;;;;;;;5037206;28;92269;-71
2022/05/17 04:02:17;;;;;;;0.00;0.00;;;;;;;;;;5017986;28;94746;-71
2022/05/17 04:04:43;;;;;;;0.00;0.00;;;;;;;;;;5033606;28;93653;-73
2022/05/17 04:07:10;;;;;;;0.00;0.00;;;;;;;;;;5036765;28;92418;-72
2022/05/17 04:09:36;;;;;;;0.00;0.00;;;;;;;;;;5037007;27;92847;-71
2022/05/17 04:12:03;;;;;;;0.00;0.00;;;;;;;;;;5039591;28;93611;-71
2022/05/17 04:14:30;;;;;;;0.00;0.00;;;;;;;;;;5040326;28;92255;-71
2022/05/17 04:16:56;;;;;;;0.00;0.00;;;;;;;;;;5043272;28;93693;-72
2022/05/17 04:19:22;;;;;;;0.00;0.00;;;;;;;;;;5040782;28;92847;-71
2022/05/17 04:21:49;;;;;;;0.00;0.00;;;;;;;;;;5039991;28;92672;-72
2022/05/17 04:24:15;;;;;;;0.00;0.00;;;;;;;;;;5040058;28;93633;-72
2022/05/17 04:26:42;;;;;;;0.00;0.00;;;;;;;;;;5038727;28;94714;-71
2022/05/17 04:29:09;;;;;;;0.00;0.00;;;;;;;;;;5040099;28;95849;-71
2022/05/17 04:31:35;;;;;;;0.00;0.00;;;;;;;;;;5039676;28;93151;-71
2022/05/17 04:34:02;;;;;;;0.00;0.00;;;;;;;;;;5039749;28;92480;-72
2022/05/17 04:36:29;;;;;;;0.00;0.00;;;;;;;;;;5040109;28;93533;-72
2022/05/17 04:38:55;;;;;;;0.00;0.00;;;;;;;;;;5043130;28;93546;-71
2022/05/17 04:41:22;;;;;;;0.00;0.00;;;;;;;;;;5039863;28;93515;-72
2022/05/17 04:43:49;;;;;;;0.00;0.00;;;;;;;;;;5040406;28;93106;-71
2022/05/17 04:46:16;;;;;;;0.00;0.00;;;;;;;;;;5039984;28;92449;-71
2022/05/17 04:48:43;;;;;;;0.00;0.00;;;;;;;;;;5039559;28;93194;-72
2022/05/17 04:51:11;;;;;;;0.00;0.00;;;;;;;;;;5037924;28;96335;-71
2022/05/17 04:53:38;;;;;;;0.00;0.00;;;;;;;;;;5039562;28;93651;-71
2022/05/17 04:56:06;;;;;;;0.00;0.00;;;;;;;;;;5021692;28;93800;-71
2022/05/17 04:58:33;;;;;;;0.20;0.20;;;;;;;;;;5024708;28;93113;-71
2022/05/17 05:01:00;;;;;;;0.00;0.00;;;;;;;;;;5039885;28;93842;-71
2022/05/17 05:03:27;;;;;;;0.00;0.00;;;;;;;;;;5039057;28;93539;-72
2022/05/17 05:05:53;;;;;;;0.00;0.00;;;;;;;;;;5039757;28;92834;-72
2022/05/17 05:08:21;;;;;;;0.00;0.00;;;;;;;;;;5040266;28;93183;-72
2022/05/17 05:10:53;;;;;;;0.00;0.00;;;;;;;;;;5039387;28;93732;-71
2022/05/17 05:13:20;;;;;;;0.00;0.00;;;;;;;;;;5039383;28;92523;-72
2022/05/17 05:15:47;;;;;;;0.00;0.00;;;;;;;;;;5037610;28;94668;-72
2022/05/17 05:18:14;;;;;;;0.00;0.00;;;;;;;;;;5039040;28;92871;-71
2022/05/17 05:20:41;;;;;;;0.03;0.03;;;;;;;;;;5042454;28;94619;-72
2022/05/17 05:23:07;;;;;;;0.10;0.10;;;;;;;;;;5038855;27;93816;-72
2022/05/17 05:25:34;;;;;;;0.00;0.00;;;;;;;;;;5021649;28;92296;-72
2022/05/17 05:28:02;;;;;;;0.00;0.00;;;;;;;;;;5039415;28;93457;-72
2022/05/17 05:30:29;;;;;;;0.00;0.00;;;;;;;;;;5038533;28;93658;-72
2022/05/17 05:32:56;;;;;;;0.00;0.00;;;;;;;;;;5039890;28;91629;-72
2022/05/17 05:35:25;;;;;;;0.00;0.00;;;;;;;;;;5039040;28;92903;-71
2022/05/17 05:37:52;;;;;;;0.00;0.00;;;;;;;;;;5039227;28;92909;-72
2022/05/17 05:40:21;;;;;;;0.00;0.00;;;;;;;;;;5020225;28;95237;-72
2022/05/17 05:42:51;;;;;;;0.00;0.00;;;;;;;;;;5041604;28;96164;-72
2022/05/17 05:45:18;;;;;;;0.00;0.00;;;;;;;;;;5038945;28;92242;-72
2022/05/17 05:47:45;;;;;;;0.00;0.00;;;;;;;;;;5038949;28;93662;-72
2022/05/17 05:50:12;;;;;;;0.00;0.00;;;;;;;;;;5021429;28;93689;-72
2022/05/17 05:52:38;;;;;;;0.00;0.00;;;;;;;;;;5021284;28;92383;-72
2022/05/17 05:55:07;;;;;;;0.00;0.00;;;;;;;;;;5038860;28;93798;-72
2022/05/17 05:57:33;;;;;;;0.00;0.00;;;;;;;;;;5038469;28;93014;-72
2022/05/17 06:00:00;;;;;;;0.00;0.00;;;;;;;;;;5038752;28;92467;-72
2022/05/17 06:02:36;;;;;;;0.00;0.00;;;;;;;;;;5036774;28;93452;-71
2022/05/17 06:05:03;;;;;;;0.00;0.00;;;;;;;;;;5039998;28;96080;-71
2022/05/17 06:07:29;;;;;;;0.00;0.00;;;;;;;;;;5038663;28;96112;-73
2022/05/17 06:09:56;;;;;;;0.00;0.00;;;;;;;;;;5038265;28;92644;-73
2022/05/17 06:12:22;;;;;;;0.00;0.00;;;;;;;;;;5038114;28;92357;-72
2022/05/17 06:14:49;;;;;;;0.00;0.00;;;;;;;;;;5038516;28;93118;-72
2022/05/17 06:17:15;;;;;;;0.00;0.00;;;;;;;;;;5038291;28;93613;-70
2022/05/17 06:19:41;;;;;;;0.00;0.00;;;;;;;;;;5038558;28;92299;-73
2022/05/17 06:22:08;;;;;;;0.03;0.03;;;;;;;;;;5038888;28;93538;-72
2022/05/17 06:24:34;;;;;;;0.00;0.00;;;;;;;;;;5037640;28;95257;-74
2022/05/17 06:27:01;;;;;;;0.00;0.00;;;;;;;;;;5041613;28;92543;-76
2022/05/17 06:29:27;;;;;;;0.00;0.00;;;;;;;;;;5036515;28;96041;-76
2022/05/17 06:31:54;;;;;;;0.10;0.10;;;;;;;;;;5038380;28;92381;-77
2022/05/17 06:34:20;;;;;;;0.00;0.00;;;;;;;;;;5037507;27;93790;-73
2022/05/17 06:36:47;;;;;;;0.10;0.10;;;;;;;;;;5037668;28;95281;-77
2022/05/17 06:39:20;;;;;;;0.00;0.00;;;;;;;;;;5037380;28;93243;-76
2022/05/17 06:41:47;;;;;;;0.00;0.00;;;;;;;;;;5038156;28;93699;-75
2022/05/17 06:44:13;;;;;;;0.00;0.00;;;;;;;;;;5038110;28;92618;-76
2022/05/17 06:46:40;;;;;;;0.00;0.00;;;;;;;;;;5038287;28;91599;-78
2022/05/17 06:49:08;;;;;;;0.00;0.00;;;;;;;;;;5040737;28;93727;-79
2022/05/17 06:51:35;;;;;;;0.00;0.00;;;;;;;;;;5037870;28;92296;-80
2022/05/17 06:54:01;;;;;;;0.00;0.00;;;;;;;;;;5035923;28;94846;-77
2022/05/17 06:56:28;;;;;;;0.00;0.00;;;;;;;;;;5020171;28;93758;-78
2022/05/17 06:58:55;;;;;;;0.55;0.55;;;;;;;;;;5037627;28;94373;-80
2022/05/17 07:01:22;;;;;;;0.00;0.00;;;;;;;;;;5038130;28;93446;-78
2022/05/17 07:03:50;;;;;;;0.05;0.05;;;;;;;;;;5037835;28;93772;-78
2022/05/17 07:06:19;;;;;;;0.10;0.10;;;;;;;;;;5037602;28;92679;-81
2022/05/17 07:08:47;;;;;;;0.00;0.00;;;;;;;;;;5040791;28;94745;-82
2022/05/17 07:13:58;;;;;;;0.00;0.00;;;;;;;;;;5037568;28;92366;-78
2022/05/17 07:16:25;;;;;;;0.00;0.00;;;;;;;;;;5037657;28;93023;-79
2022/05/17 07:18:51;;;;;;;0.00;0.00;;;;;;;;;;5035407;28;94830;-78
2022/05/17 07:21:37;;;;;;;0.00;0.00;;;;;;;;;;5036949;28;96815;-78
2022/05/17 07:24:03;;;;;;;0.00;0.00;;;;;;;;;;5019336;28;96195;-77
2022/05/17 07:26:30;;;;;;;0.00;0.00;;;;;;;;;;5034211;28;92421;-77
2022/05/17 07:28:56;;;;;;;0.00;0.00;;;;;;;;;;5037212;28;94004;-74
2022/05/17 07:31:26;;;;;;;0.10;0.10;;;;;;;;;;5040086;28;93620;-82
2022/05/17 07:33:52;;;;;;;0.00;0.00;;;;;;;;;;5037664;28;93315;-74
2022/05/17 07:36:18;;;;;;;0.00;0.00;;;;;;;;;;5037586;28;92801;-76
2022/05/17 07:38:45;;;;;;;0.00;0.00;;;;;;;;;;5037347;28;92374;-81
2022/05/17 07:41:11;;;;;;;0.00;0.00;;;;;;;;;;5019128;28;94652;-75
2022/05/17 07:43:38;;;;;;;0.00;0.00;;;;;;;;;;5017235;28;97258;-80
2022/05/17 07:46:04;;;;;;;0.00;0.00;;;;;;;;;;5036741;28;92350;-78
2022/05/17 07:48:30;;;;;;;0.00;0.00;;;;;;;;;;5037339;28;92632;-79
2022/05/17 07:51:06;;;;;;;0.00;0.00;;;;;;;;;;5037188;28;93166;-76
2022/05/17 07:53:38;;;;;;;0.00;0.00;;;;;;;;;;5040103;28;92477;-74
2022/05/17 07:56:07;;;;;;;0.00;0.00;;;;;;;;;;5036453;28;94396;-72
2022/05/17 07:58:33;;;;;;;0.00;0.00;;;;;;;;;;5033129;28;92528;-72
2022/05/17 08:01:01;;;;;;;0.00;0.00;;;;;;;;;;5037040;28;94877;-74
2022/05/17 08:03:27;;;;;;;0.00;0.00;;;;;;;;;;5036266;28;94952;-76
2022/05/17 08:05:58;;;;;;;0.00;0.00;;;;;;;;;;5036448;28;92301;-77
2022/05/17 08:08:27;;;;;;;0.00;0.00;;;;;;;;;;5035716;28;94689;-81
2022/05/17 08:10:54;;;;;;;0.00;0.00;;;;;;;;;;5036849;28;93692;-80
2022/05/17 08:13:21;;;;;;;0.00;0.00;;;;;;;;;;5036106;28;92411;-78
2022/05/17 08:15:48;;;;;;;0.00;0.00;;;;;;;;;;5039820;28;92406;-79
2022/05/17 08:18:15;;;;;;;0.05;0.05;;;;;;;;;;5039030;27;93021;-72
2022/05/17 08:20:42;;;;;;;0.00;0.00;;;;;;;;;;5035985;27;94210;-71
2022/05/17 08:23:09;;;;;;;0.00;0.00;;;;;;;;;;5036161;27;93415;-74
2022/05/17 08:28:23;;;;;;;0.00;0.00;;;;;;;;;;5036292;27;92654;-71
2022/05/17 08:30:51;;;;;;;0.03;0.03;;;;;;;;;;5017556;27;93217;-72
2022/05/17 08:33:19;;;;;;;0.00;0.00;;;;;;;;;;5034397;27;94638;-74
2022/05/17 08:35:55;;;;;;;0.08;0.08;;;;;;;;;;5035780;27;95707;-75
2022/05/17 08:38:23;;;;;;;0.20;0.20;;;;;;;;;;5020658;27;96079;-71
2022/05/17 08:40:53;;;;;;;0.00;0.00;;;;;;;;;;5035955;27;93522;-69
2022/05/17 08:43:23;;;;;;;0.05;0.05;;;;;;;;;;5035688;27;93969;-70
2022/05/17 08:46:08;;;;;;;0.10;0.10;;;;;;;;;;5035974;27;92294;-70
2022/05/17 08:48:47;;;;;;;0.25;0.17;;;;;;;;;;5036620;27;93234;-71
2022/05/17 08:51:15;;;;;;;0.00;0.00;;;;;;;;;;5036056;27;94509;-71
2022/05/17 08:53:42;;;;;;;0.10;0.10;;;;;;;;;;5035108;27;92226;-71
2022/05/17 08:56:12;;;;;;;0.00;0.00;;;;;;;;;;5035741;27;93519;-72
2022/05/17 08:58:39;;;;;;;0.00;0.00;;;;;;;;;;5038362;27;96016;-72
2022/05/17 09:01:14;;;;;;;0.00;0.00;;;;;;;;;;5041947;27;92161;-73
2022/05/17 09:04:00;;;;;;;0.30;0.30;;;;;;;;;;5038771;27;93192;-70
2022/05/17 09:06:37;;;;;;;0.00;0.00;;;;;;;;;;5038649;27;92278;-72
2022/05/17 09:09:10;;;;;;;0.10;0.10;;;;;;;;;;5038955;27;93676;-71
2022/05/17 09:11:37;;;;;;;0.20;0.20;;;;;;;;;;5038406;27;92938;-71
2022/05/17 09:14:07;;;;;;;0.20;0.20;;;;;;;;;;5038758;27;92375;-73
2022/05/17 09:16:37;;;;;;;0.20;0.20;;;;;;;;;;5039969;27;93350;-72
2022/05/17 09:19:03;;;;;;;0.50;0.40;;;;;;;;;;5039870;27;92990;-72
2022/05/17 09:21:34;;;;;;;0.10;0.10;;;;;;;;;;5041745;27;93569;-72
2022/05/17 09:24:14;;;;;;;0.07;0.07;;;;;;;;;;5036523;27;95634;-73
2022/05/17 09:26:47;;;;;;;0.07;0.07;;;;;;;;;;5040186;27;92423;-72
2022/05/17 09:29:16;;;;;;;0.10;0.10;;;;;;;;;;5038689;27;93172;-72
2022/05/17 09:31:49;;;;;;;0.10;0.10;;;;;;;;;;5038382;27;93248;-72
2022/05/17 09:34:20;;;;;;;0.10;0.10;;;;;;;;;;5038661;27;92285;-73
2022/05/17 09:36:52;;;;;;;0.20;0.20;;;;;;;;;;5040759;27;93197;-72
2022/05/17 09:39:20;;;;;;;0.00;0.00;;;;;;;;;;5046940;27;93169;-73
2022/05/17 09:41:47;;;;;;;0.10;0.10;;;;;;;;;;5039171;27;91638;-73
2022/05/17 09:44:39;;;;;;;0.10;0.10;;;;;;;;;;5041353;27;92324;-73
2022/05/17 09:47:06;;;;;;;0.15;0.15;;;;;;;;;;5041439;27;92443;-72
2022/05/17 09:52:32;;;;;;;0.10;0.10;;;;;;;;;;5038149;27;93546;-72
2022/05/17 09:55:08;;;;;;;0.10;0.10;;;;;;;;;;5037999;27;92336;-74
2022/05/17 09:57:36;;;;;;;2.60;0.65;;;;;;;;;;5015760;28;95800;-73
2022/05/17 10:00:08;;;;;;;0.10;0.10;;;;;;;;;;5017780;28;93647;-74
2022/05/17 10:02:42;;;;;;;0.25;0.25;;;;;;;;;;5014970;28;92403;-74
2022/05/17 10:05:14;;;;;;;0.10;0.10;;;;;;;;;;5017802;28;92372;-75
2022/05/17 10:07:43;;;;;;;0.10;0.10;;;;;;;;;;5021033;28;92996;-73
2022/05/17 10:10:21;;;;;;;0.10;0.10;;;;;;;;;;5016854;28;92666;-74
2022/05/17 10:12:51;;;;;;;0.10;0.10;;;;;;;;;;5017906;28;93358;-74
2022/05/17 10:15:19;;;;;;;6.03;0.70;;;;;;;;;;5016297;28;94554;-78
2022/05/17 10:18:01;;;;;;;0.08;0.08;;;;;;;;;;5017939;28;94734;-78
2022/05/17 10:20:34;;;;;;;0.10;0.10;;;;;;;;;;5016995;28;93725;-76
2022/05/17 10:23:03;;;;;;;0.10;0.10;;;;;;;;;;5021766;28;92566;-75
2022/05/17 10:25:43;;;;;;;0.10;0.10;;;;;;;;;;5017819;28;93428;-78
2022/05/17 10:28:33;;;;;;;0.10;0.10;;;;;;;;;;5018210;28;93470;-78
2022/05/17 10:31:03;;;;;;;0.10;0.10;;;;;;;;;;5020356;28;92495;-76
2022/05/17 10:33:35;;;;;;;0.40;0.38;;;;;;;;;;5017967;28;92227;-76
2022/05/17 10:36:03;;;;;;;0.10;0.10;;;;;;;;;;5017087;28;92463;-76
2022/05/17 10:38:34;;;;;;;0.10;0.10;;;;;;;;;;5018693;28;92979;-76
2022/05/17 10:41:03;;;;;;;0.10;0.10;;;;;;;;;;5015208;28;97033;-77
2022/05/17 10:43:31;;;;;;;0.20;0.20;;;;;;;;;;5016696;28;92337;-78
2022/05/17 10:46:06;;;;;;;1.13;0.25;;;;;;;;;;5017555;28;93931;-77
2022/05/17 10:48:39;;;;;;;0.10;0.10;;;;;;;;;;5019293;28;95134;-77
2022/05/17 10:51:19;;;;;;;0.10;0.10;;;;;;;;;;5017205;28;92419;-79
2022/05/17 10:54:04;;;;;;;0.10;0.10;;;;;;;;;;5028510;28;93497;-79
2022/05/17 10:56:49;;;;;;;0.10;0.10;;;;;;;;;;5017291;28;93612;-79
2022/05/17 10:59:25;;;;;;;0.10;0.10;;;;;;;;;;5017684;28;93324;-76
2022/05/17 11:02:03;;;;;;;0.10;0.10;;;;;;;;;;5016966;28;93718;-76
2022/05/17 11:04:57;;;;;;;0.10;0.10;;;;;;;;;;5017038;28;92259;-76
2022/05/17 11:07:42;;;;;;;0.10;0.10;;;;;;;;;;5018243;28;95761;-76
2022/05/17 11:10:22;;;;;;;0.10;0.10;;;;;;;;;;5016908;28;93747;-76
2022/05/17 11:12:53;;;;;;;0.10;0.10;;;;;;;;;;5017067;28;93224;-76
2022/05/17 11:15:22;;;;;;;0.55;0.30;;;;;;;;;;5019675;28;92395;-76
2022/05/17 11:17:54;;;;;;;0.10;0.10;;;;;;;;;;5020229;28;92291;-76
2022/05/17 11:20:21;;;;;;;;;;;;;;;;;;5017125;28;92813;-76
2022/05/17 11:22:48;;;;;;;0.10;0.10;;;;;;;;;;5015763;28;120625;-76
2022/05/17 11:25:29;;;;;;;0.10;0.10;;;;;;;;;;5017019;28;92870;-76
2022/05/17 11:27:56;;;;;;;;;;;;;;;;;;5017397;28;93745;-75
2022/05/17 11:30:36;;;;;;;0.10;0.10;;;;;;;;;;5016152;28;122929;-76
2022/05/17 11:33:06;;;;;;;0.10;0.10;;;;;;;;;;5015819;28;94800;-76
2022/05/17 11:35:33;;;;;;;0.10;0.10;;;;;;;;;;5016446;28;95930;-74
2022/05/17 11:37:59;;;;;;;0.20;0.20;;;;;;;;;;5019998;28;93695;-73
2022/05/17 11:40:45;;;;;;;0.20;0.20;;;;;;;;;;5017179;28;93639;-73
2022/05/17 11:45:57;;;;;;;0.17;0.17;;;;;;;;;;5016814;28;92900;-74
2022/05/17 11:48:42;;;;;;;0.50;0.50;;;;;;;;;;5017045;28;93257;-73
2022/05/17 11:51:08;;;;;;;0.10;0.10;;;;;;;;;;5016931;28;93955;-74
2022/05/17 11:53:45;;;;;;;0.10;0.10;;;;;;;;;;5016674;28;92241;-73
2022/05/17 11:56:18;;;;;;;0.17;0.17;;;;;;;;;;5016849;28;93410;-73
2022/05/17 11:58:47;;;;;;;0.15;0.15;;;;;;;;;;5033163;28;96067;-74
2022/05/17 12:01:40;;;;;;;0.10;0.10;;;;;;;;;;5040177;28;92401;-74
2022/05/17 12:04:19;;;;;;;0.08;0.08;;;;;;;;;;5036707;28;93951;-73
2022/05/17 12:06:48;;;;;;;0.10;0.10;;;;;;;;;;5036753;28;92587;-75
2022/05/17 12:09:21;;;;;;;0.10;0.10;;;;;;;;;;5037067;28;93281;-74
2022/05/17 12:12:02;;;;;;;0.10;0.10;;;;;;;;;;5036704;28;93697;-73
2022/05/17 12:14:29;;;;;;;;;;;;;;;;;;5037001;28;92181;-74
2022/05/17 12:16:59;;;;;;;0.10;0.10;;;;;;;;;;5036390;28;121206;-73
2022/05/17 12:19:35;;;;;;;0.25;0.25;;;;;;;;;;5036103;28;93346;-73
2022/05/17 12:22:04;;;;;;;0.25;0.25;;;;;;;;;;5036641;28;92307;-73
2022/05/17 12:24:37;;;;;;;0.77;0.20;;;;;;;;;;5038178;28;95416;-73
2022/05/17 12:27:23;;;;;;;0.20;0.20;;;;;;;;;;5036222;28;92317;-74
2022/05/17 12:32:37;;;;;;;0.50;0.50;;;;;;;;;;5020491;28;94700;-73
2022/05/17 12:35:05;;;;;;;2.38;0.63;;;;;;;;;;5040163;28;92605;-73
2022/05/17 12:37:31;;;;;;;0.10;0.10;;;;;;;;;;5039987;28;93470;-73
2022/05/17 12:43:03;;;;;;;0.10;0.10;;;;;;;;;;5040408;28;91581;-74
2022/05/17 12:45:31;;;;;;;0.13;0.13;;;;;;;;;;5039828;28;93895;-73
2022/05/17 12:47:59;;;;;;;0.13;0.13;;;;;;;;;;5042885;28;94199;-73
2022/05/17 12:50:42;;;;;;;0.10;0.10;;;;;;;;;;5038337;28;94527;-73
2022/05/17 12:53:16;;;;;;;0.10;0.10;;;;;;;;;;5021953;28;93781;-73
2022/05/17 12:55:55;;;;;;;0.20;0.10;;;;;;;;;;5039538;28;92264;-73
2022/05/17 12:58:23;;;;;;;0.10;0.10;;;;;;;;;;5039119;28;94233;-73
2022/05/17 13:00:54;;;;;;;0.30;0.30;;;;;;;;;;5039379;28;93589;-73
2022/05/17 13:03:22;;;;;;;0.10;0.10;;;;;;;;;;5021481;28;92397;-70
2022/05/17 13:05:51;;;;;;;0.20;0.20;;;;;;;;;;5039103;28;94004;-71
2022/05/17 13:08:37;;;;;;;0.10;0.10;;;;;;;;;;5039899;28;92801;-73
2022/05/17 13:11:06;;;;;;;0.10;0.10;;;;;;;;;;5042694;28;92352;-73
2022/05/17 13:13:35;;;;;;;0.32;0.20;;;;;;;;;;5038956;28;94005;-74
2022/05/17 13:16:04;;;;;;;0.20;0.20;;;;;;;;;;5037782;28;94665;-73
2022/05/17 13:18:45;;;;;;;0.38;0.38;;;;;;;;;;5039156;28;95650;-73
2022/05/17 13:21:32;;;;;;;0.20;0.20;;;;;;;;;;5039101;28;93314;-73
2022/05/17 13:24:00;;;;;;;0.10;0.10;;;;;;;;;;5038715;28;92301;-73
2022/05/17 13:26:32;;;;;;;0.10;0.10;;;;;;;;;;5039111;28;93256;-74
2022/05/17 13:28:58;;;;;;;;;;;;;;;;;;5039363;28;93760;-72
2022/05/17 13:31:26;;;;;;;0.10;0.10;;;;;;;;;;5041430;28;117191;-73
2022/05/17 13:33:54;;;;;;;0.10;0.10;;;;;;;;;;5039468;28;91614;-72
2022/05/17 13:36:35;;;;;;;0.30;0.30;;;;;;;;;;5038897;28;92194;-73
2022/05/17 13:39:03;;;;;;;0.10;0.10;;;;;;;;;;5039020;28;92874;-73
2022/05/17 13:41:48;;;;;;;0.10;0.10;;;;;;;;;;5036972;28;95903;-72
2022/05/17 13:44:29;;;;;;;0.20;0.20;;;;;;;;;;5038661;27;92307;-75
2022/05/17 13:46:56;;;;;;;0.03;0.03;;;;;;;;;;5038515;28;92952;-73
2022/05/17 13:49:31;;;;;;;0.22;0.17;;;;;;;;;;5038691;28;93835;-72
2022/05/17 13:52:03;;;;;;;0.15;0.15;;;;;;;;;;5038734;28;92350;-71
2022/05/17 13:54:32;;;;;;;0.10;0.10;;;;;;;;;;5041370;28;93344;-72
2022/05/17 13:57:09;;;;;;;0.10;0.10;;;;;;;;;;5038438;28;92160;-74
2022/05/17 13:59:35;;;;;;;0.10;0.10;;;;;;;;;;5038621;28;93361;-74
2022/05/17 14:02:03;;;;;;;0.32;0.32;;;;;;;;;;5038535;28;93510;-75
2022/05/17 14:04:35;;;;;;;0.10;0.10;;;;;;;;;;5038760;28;92323;-74
2022/05/17 14:07:03;;;;;;;0.28;0.28;;;;;;;;;;5037327;28;94693;-75
2022/05/17 14:13:06;;;;;;;0.10;0.10;;;;;;;;;;5042308;27;92329;-76
2022/05/17 14:15:33;;;;;;;0.10;0.10;;;;;;;;;;5058533;27;94254;-77
2022/05/17 14:18:00;;;;;;;0.20;0.20;;;;;;;;;;5061607;27;93190;-76
2022/05/17 14:20:26;;;;;;;0.55;0.55;;;;;;;;;;5051324;27;92487;-75
2022/05/17 14:22:55;;;;;;;0.10;0.10;;;;;;;;;;5056504;27;94699;-75
2022/05/17 14:25:22;;;;;;;0.10;0.10;;;;;;;;;;5059295;27;91426;-76
2022/05/17 14:27:50;;;;;;;0.15;0.15;;;;;;;;;;5058672;27;92722;-78
2022/05/17 14:30:18;;;;;;;0.80;0.30;;;;;;;;;;5057966;27;93007;-72
2022/05/17 14:32:44;;;;;;;0.10;0.10;;;;;;;;;;5056795;27;94647;-72
2022/05/17 14:35:10;;;;;;;0.10;0.10;;;;;;;;;;5058485;27;95653;-71
2022/05/17 14:37:37;;;;;;;0.20;0.20;;;;;;;;;;5057863;27;93961;-73
2022/05/17 14:40:03;;;;;;;0.10;0.10;;;;;;;;;;5061410;27;92196;-71
2022/05/17 14:42:30;;;;;;;0.15;0.15;;;;;;;;;;5057810;27;94026;-72
2022/05/17 14:45:16;;;;;;;0.35;0.35;;;;;;;;;;5057927;27;92270;-72
2022/05/17 14:47:45;;;;;;;0.35;0.35;;;;;;;;;;5055319;27;93482;-73
2022/05/17 14:50:11;;;;;;;0.20;0.20;;;;;;;;;;5058670;27;92771;-76
2022/05/17 14:52:42;;;;;;;0.20;0.20;;;;;;;;;;5057854;27;92339;-76
2022/05/17 14:55:10;;;;;;;0.45;0.30;;;;;;;;;;5057222;27;92930;-74
2022/05/17 14:57:37;;;;;;;1.17;0.38;;;;;;;;;;5055845;27;95973;-73
2022/05/17 15:00:11;;;;;;;0.10;0.10;;;;;;;;;;5058002;27;92385;-75
2022/05/17 15:02:38;;;;;;;0.10;0.10;;;;;;;;;;5060954;27;93347;-77
2022/05/17 15:05:05;;;;;;;0.20;0.20;;;;;;;;;;5057782;27;92267;-74
2022/05/17 15:07:33;;;;;;;0.10;0.10;;;;;;;;;;5057461;27;93668;-71
2022/05/17 15:10:07;;;;;;;0.10;0.10;;;;;;;;;;5057949;27;93728;-75
2022/05/17 15:12:33;;;;;;;0.10;0.10;;;;;;;;;;5057771;27;92991;-73
2022/05/17 15:15:00;;;;;;;0.17;0.17;;;;;;;;;;5058360;27;93152;-75
2022/05/17 15:17:28;;;;;;;0.10;0.10;;;;;;;;;;5057041;27;94303;-74
2022/05/17 15:19:54;;;;;;;0.45;0.40;;;;;;;;;;5057634;27;92398;-74